Time;durP1;ratioP1;P1;durP2;ratioP2;P2;SDS_P1;SDS_P2;PMS_P1;PMS_P2;Temp;Humidity;BMP_temperature;BMP_pressure;BME280_temperature;BME280_humidity;BME280_pressure;Samples;Min_cycle;Max_cycle;Signal;HPM_P1;HPM_P2
2022/07/21 00:00:26;;;;;;;5.80;4.40;;;;;;;21.14;51.90;98251.72;106481;1274;22544;-84
2022/07/21 00:03:05;;;;;;;8.10;5.00;;;;;;;21.08;52.08;98250.95;106421;1274;25277;-81
2022/07/21 00:05:34;;;;;;;8.50;4.30;;;;;;;21.02;52.18;98256.16;106275;1273;25298;-83
2022/07/21 00:08:03;;;;;;;6.00;3.80;;;;;;;20.96;52.17;98260.74;106381;1274;22528;-85
2022/07/21 00:10:31;;;;;;;6.60;4.70;;;;;;;21.01;52.24;98264.69;106415;1274;22567;-83
2022/07/21 00:12:59;;;;;;;6.20;3.40;;;;;;;21.02;52.33;98262.89;106379;1274;22561;-84
2022/07/21 00:15:27;;;;;;;4.50;4.00;;;;;;;21.10;52.86;98265.17;106410;1274;22866;-85
2022/07/21 00:17:56;;;;;;;6.30;4.40;;;;;;;21.30;52.67;98263.09;106385;1274;22769;-84
2022/07/21 00:20:24;;;;;;;6.20;4.10;;;;;;;21.46;52.37;98256.31;106382;1274;22699;-84
2022/07/21 00:22:52;;;;;;;7.70;4.20;;;;;;;21.60;52.21;98257.90;106406;1274;24218;-84
2022/07/21 00:25:22;;;;;;;6.50;4.70;;;;;;;21.73;51.91;98257.38;106375;1274;25372;-84
2022/07/21 00:27:50;;;;;;;10.30;4.60;;;;;;;21.80;51.73;98256.30;106258;1274;22566;-84
2022/07/21 00:30:18;;;;;;;6.80;4.20;;;;;;;21.84;51.62;98255.98;106381;1274;22553;-84
2022/07/21 00:32:46;;;;;;;6.20;4.70;;;;;;;21.79;51.57;98258.64;106333;1274;25298;-84
2022/07/21 00:35:15;;;;;;;5.30;4.10;;;;;;;21.70;51.32;98257.48;106344;1274;25524;-83
2022/07/21 00:37:43;;;;;;;5.90;4.40;;;;;;;21.61;51.64;98264.50;106358;1274;22544;-83
2022/07/21 00:40:13;;;;;;;8.90;4.20;;;;;;;21.60;51.85;98265.02;106368;1274;22585;-84
2022/07/21 00:42:42;;;;;;;5.70;4.10;;;;;;;21.65;51.89;98263.64;106411;1274;22690;-85
2022/07/21 00:45:11;;;;;;;4.70;4.00;;;;;;;21.75;51.82;98265.30;106344;1274;22547;-84
2022/07/21 00:47:40;;;;;;;7.30;4.60;;;;;;;21.75;51.74;98266.02;106364;1274;22487;-83
2022/07/21 00:50:11;;;;;;;6.10;4.40;;;;;;;21.62;51.41;98263.67;106372;1274;22561;-83
2022/07/21 00:52:40;;;;;;;6.40;4.20;;;;;;;21.50;51.83;98261.63;106322;1274;22616;-83
2022/07/21 00:55:10;;;;;;;8.50;4.70;;;;;;;21.41;52.10;98260.52;106373;1274;22560;-83
2022/07/21 00:57:38;;;;;;;6.20;4.20;;;;;;;21.41;52.66;98262.70;106356;1274;22675;-85
2022/07/21 01:00:09;;;;;;;6.00;4.30;;;;;;;21.44;52.65;98265.02;106395;1274;25364;-83
2022/07/21 01:02:38;;;;;;;6.50;4.60;;;;;;;21.41;52.29;98264.98;106458;1274;24355;-83
2022/07/21 01:05:18;;;;;;;5.30;4.20;;;;;;;21.30;52.43;98264.83;106410;1273;24259;-84
2022/07/21 01:07:49;;;;;;;6.90;4.90;;;;;;;21.19;52.40;98266.46;106441;1274;22691;-84
2022/07/21 01:10:19;;;;;;;4.80;3.80;;;;;;;21.15;53.77;98265.59;106492;1274;22720;-85
2022/07/21 01:12:48;;;;;;;6.70;3.90;;;;;;;21.31;53.89;98265.14;106433;1274;24412;-85
2022/07/21 01:15:18;;;;;;;8.10;4.50;;;;;;;21.42;52.79;98265.31;106381;1274;22985;-84
2022/07/21 01:17:47;;;;;;;6.50;4.90;;;;;;;21.19;52.58;98260.83;106307;1274;24240;-85
2022/07/21 01:20:19;;;;;;;5.70;4.90;;;;;;;21.01;52.74;98261.92;106486;1274;25578;-85
2022/07/21 01:22:49;;;;;;;6.70;4.80;;;;;;;20.83;53.11;98263.18;106535;1274;24399;-84
2022/07/21 01:25:18;;;;;;;7.60;5.00;;;;;;;20.66;53.55;98262.73;106527;1274;24092;-85
2022/07/21 01:27:46;;;;;;;8.00;5.20;;;;;;;20.53;53.72;98260.93;106423;1274;22863;-84
2022/07/21 01:30:16;;;;;;;6.60;4.90;;;;;;;20.46;53.90;98262.63;106419;1274;24169;-86
2022/07/21 01:32:44;;;;;;;8.80;5.30;;;;;;;20.39;53.92;98261.30;106389;1274;24220;-85
2022/07/21 01:35:14;;;;;;;8.00;4.90;;;;;;;20.36;54.12;98263.72;106328;1274;24077;-84
2022/07/21 01:37:45;;;;;;;6.80;5.00;;;;;;;20.33;54.19;98259.42;106398;1274;23309;-84
2022/07/21 01:43:01;;;;;;;9.70;5.20;;;;;;;20.26;54.14;98246.52;106380;1272;22711;-84
2022/07/21 01:45:35;;;;;;;8.50;5.20;;;;;;;20.18;54.53;98245.55;106384;1274;22571;-84
2022/07/21 01:48:04;;;;;;;5.90;5.00;;;;;;;20.15;54.61;98241.57;106438;1274;24431;-84
2022/07/21 01:50:32;;;;;;;10.40;5.80;;;;;;;20.12;54.76;98236.96;106450;1274;24466;-84
2022/07/21 01:53:00;;;;;;;8.30;4.90;;;;;;;20.11;55.12;98236.45;106350;1274;22587;-84
2022/07/21 01:55:29;;;;;;;7.60;5.20;;;;;;;20.14;55.15;98241.46;106307;1274;278024;-84
2022/07/21 01:57:57;;;;;;;8.30;5.30;;;;;;;20.12;55.15;98243.45;106405;1274;25350;-84
2022/07/21 02:00:25;;;;;;;7.60;5.50;;;;;;;20.12;55.23;98242.73;106421;1274;22609;-84
2022/07/21 02:02:53;;;;;;;6.60;5.40;;;;;;;20.16;55.18;98241.04;106400;1274;22557;-84
2022/07/21 02:05:21;;;;;;;10.20;5.60;;;;;;;20.21;55.23;98243.98;106451;1274;23286;-84
2022/07/21 02:07:49;;;;;;;6.30;5.60;;;;;;;20.27;55.22;98242.95;106372;1274;22561;-84
2022/07/21 02:10:17;;;;;;;8.70;4.70;;;;;;;20.33;55.13;98238.16;106360;1274;22534;-84
2022/07/21 02:12:45;;;;;;;6.30;5.10;;;;;;;20.37;55.09;98243.50;106400;1274;22544;-84
2022/07/21 02:15:13;;;;;;;8.50;5.50;;;;;;;20.37;55.04;98239.84;106372;1274;25342;-84
2022/07/21 02:17:41;;;;;;;8.60;5.50;;;;;;;20.35;55.13;98238.99;106383;1274;22692;-83
2022/07/21 02:20:09;;;;;;;10.20;5.60;;;;;;;20.32;55.24;98232.49;106325;1274;22572;-85
2022/07/21 02:22:37;;;;;;;8.40;5.10;;;;;;;20.29;55.32;98230.48;106382;1272;23971;-84
2022/07/21 02:25:06;;;;;;;6.20;5.10;;;;;;;20.31;55.34;98227.80;106311;1274;25353;-84
2022/07/21 02:27:34;;;;;;;7.40;5.20;;;;;;;20.28;55.28;98230.54;106331;1274;22582;-85
2022/07/21 02:30:03;;;;;;;7.90;5.20;;;;;;;20.23;55.37;98224.56;106384;1274;25333;-84
2022/07/21 02:32:31;;;;;;;7.30;5.60;;;;;;;20.25;55.63;98225.07;106374;1274;22745;-84
2022/07/21 02:34:59;;;;;;;8.20;5.20;;;;;;;20.32;55.36;98226.55;106397;1274;24412;-85
2022/07/21 02:37:28;;;;;;;7.80;6.00;;;;;;;20.35;55.48;98225.00;106363;1274;23341;-84
2022/07/21 02:39:57;;;;;;;6.80;5.80;;;;;;;20.45;55.40;98223.50;106405;1274;22543;-85
2022/07/21 02:42:24;;;;;;;8.20;5.60;;;;;;;20.51;55.13;98220.29;106317;1274;22765;-85
2022/07/21 02:44:52;;;;;;;8.50;5.40;;;;;;;20.51;55.15;98216.84;106454;1274;25357;-84
2022/07/21 02:47:21;;;;;;;7.90;5.60;;;;;;;20.58;55.25;98210.05;106287;1274;24234;-84
2022/07/21 02:49:49;;;;;;;8.30;5.20;;;;;;;20.63;55.01;98209.39;106360;1274;22872;-84
2022/07/21 02:52:18;;;;;;;6.40;4.80;;;;;;;20.69;55.26;98206.86;106402;1274;23933;-84
2022/07/21 02:54:48;;;;;;;7.10;5.20;;;;;;;20.88;55.15;98205.45;106416;1274;22631;-85
2022/07/21 02:57:16;;;;;;;10.30;5.40;;;;;;;20.97;54.70;98203.39;106248;1271;22744;-84
2022/07/21 02:59:44;;;;;;;7.80;4.30;;;;;;;21.06;54.56;98202.16;106417;1274;22667;-83
2022/07/21 03:02:12;;;;;;;10.80;6.60;;;;;;;21.15;54.52;98198.11;106409;1274;25458;-85
2022/07/21 03:04:40;;;;;;;8.70;7.00;;;;;;;21.04;54.13;98196.48;106436;1274;22544;-84
2022/07/21 03:07:08;;;;;;;14.50;8.10;;;;;;;20.78;54.36;98199.14;106441;1274;23928;-84
2022/07/21 03:09:36;;;;;;;7.10;6.40;;;;;;;20.54;54.43;98202.98;106471;1274;23405;-84
2022/07/21 03:12:04;;;;;;;11.80;7.10;;;;;;;20.34;54.89;98205.73;106419;1274;24424;-84
2022/07/21 03:14:32;;;;;;;11.00;6.80;;;;;;;20.20;55.64;98209.47;106476;1274;22538;-83
2022/07/21 03:17:02;;;;;;;13.30;7.80;;;;;;;20.13;55.84;98204.21;106534;1274;22850;-85
2022/07/21 03:19:30;;;;;;;11.60;7.00;;;;;;;19.94;56.79;98203.13;106791;1274;23401;-83
2022/07/21 03:21:58;;;;;;;10.30;6.70;;;;;;;19.97;57.51;98203.12;106646;1274;22537;-84
2022/07/21 03:24:26;;;;;;;8.80;7.20;;;;;;;20.14;57.03;98205.11;106084;1274;25177;-84
2022/07/21 03:26:54;;;;;;;9.20;6.70;;;;;;;20.20;56.75;98205.02;106014;1274;22766;-83
2022/07/21 03:29:22;;;;;;;10.30;7.00;;;;;;;20.14;56.41;98205.42;106214;1274;24333;-86
2022/07/21 03:31:50;;;;;;;13.20;10.60;;;;;;;19.99;56.24;98203.50;106124;1274;22699;-85
2022/07/21 03:34:18;;;;;;;16.50;10.60;;;;;;;19.75;56.31;98207.98;106220;1274;22608;-84
2022/07/21 03:36:46;;;;;;;11.90;9.00;;;;;;;19.53;57.04;98203.16;106261;1274;22835;-86
2022/07/21 03:39:14;;;;;;;11.00;9.60;;;;;;;19.56;57.45;98207.89;106253;1274;22574;-86
2022/07/21 03:41:42;;;;;;;12.90;9.20;;;;;;;19.55;57.72;98208.99;106271;1274;24183;-86
2022/07/21 03:44:10;;;;;;;12.50;8.90;;;;;;;19.70;58.03;98209.48;106376;1274;25471;-85
2022/07/21 03:46:38;;;;;;;13.30;9.10;;;;;;;19.90;58.05;98209.60;107959;1274;22488;-84
2022/07/21 03:49:06;;;;;;;9.00;6.90;;;;;;;20.09;57.71;98209.60;109170;1274;24360;-82
2022/07/21 03:52:00;;;;;;;10.00;6.80;;;;;;;20.28;57.60;98209.20;109142;1272;22725;-83
2022/07/21 03:54:28;;;;;;;11.00;6.40;;;;;;;20.48;57.03;98210.28;108971;1274;22562;-85
2022/07/21 03:56:56;;;;;;;11.30;7.40;;;;;;;20.60;56.88;98215.20;108621;1272;22684;-81
2022/07/21 03:59:25;;;;;;;9.50;6.60;;;;;;;20.71;56.71;98215.73;108145;1274;24343;-82
2022/07/21 04:01:53;;;;;;;11.60;6.50;;;;;;;20.78;56.77;98212.84;108616;1274;22616;-83
2022/07/21 04:04:21;;;;;;;15.60;7.40;;;;;;;20.81;56.59;98208.38;108178;1271;22562;-82
2022/07/21 04:06:49;;;;;;;11.60;6.50;;;;;;;20.86;56.77;98211.37;106932;1274;24301;-84
2022/07/21 04:09:17;;;;;;;12.60;6.30;;;;;;;20.90;56.62;98204.97;108222;1272;24254;-82
2022/07/21 04:11:46;;;;;;;11.10;6.30;;;;;;;21.00;56.64;98212.91;109056;1273;22593;-82
2022/07/21 04:14:14;;;;;;;9.50;6.20;;;;;;;21.13;56.45;98213.80;109458;1274;22949;-84
2022/07/21 04:16:42;;;;;;;9.40;6.00;;;;;;;21.19;56.55;98214.87;109454;1274;22628;-84
2022/07/21 04:19:10;;;;;;;11.90;6.10;;;;;;;21.32;56.38;98212.77;109421;1274;22668;-84
2022/07/21 04:21:38;;;;;;;12.10;6.40;;;;;;;21.40;56.36;98216.08;109415;1274;22596;-86
2022/07/21 04:24:06;;;;;;;8.00;6.50;;;;;;;21.40;56.32;98218.89;109757;1274;22600;-86
2022/07/21 04:26:34;;;;;;;10.10;5.80;;;;;;;21.37;56.41;98217.73;109607;1274;22600;-84
2022/07/21 04:29:02;;;;;;;9.10;6.50;;;;;;;21.36;56.52;98218.09;109607;1273;25335;-85
2022/07/21 04:31:30;;;;;;;8.90;6.30;;;;;;;21.35;56.61;98218.80;109648;1274;22586;-86
2022/07/21 04:33:58;;;;;;;10.60;6.30;;;;;;;21.37;56.69;98222.05;108123;1274;22495;-87
2022/07/21 04:36:26;;;;;;;10.30;6.90;;;;;;;21.39;56.82;98217.23;106393;1274;22611;-87
2022/07/21 04:38:54;;;;;;;9.90;6.70;;;;;;;21.39;56.68;98220.92;106179;1274;22708;-83
2022/07/21 04:41:23;;;;;;;13.30;7.30;;;;;;;21.40;56.82;98221.02;106110;1274;24219;-86
2022/07/21 04:43:51;;;;;;;9.80;6.50;;;;;;;21.45;56.63;98222.84;106178;1274;22536;-84
2022/07/21 04:46:19;;;;;;;11.00;6.60;;;;;;;21.48;56.69;98221.73;106171;1274;24807;-86
2022/07/21 04:48:47;;;;;;;11.50;7.20;;;;;;;21.50;56.78;98221.91;106135;1274;22537;-86
2022/07/21 04:55:25;;;;;;;15.70;7.30;;;;;;;21.57;56.74;98216.95;106087;1274;22534;-84
2022/07/21 05:02:35;;;;;;;10.20;8.10;;;;;;;21.68;56.65;98208.61;106227;1274;25557;-86
2022/07/21 05:05:04;;;;;;;8.50;7.60;;;;;;;21.73;56.97;98209.10;106083;1274;22546;-85
2022/07/21 05:07:33;;;;;;;13.10;7.60;;;;;;;21.74;56.93;98211.31;105985;1274;22533;-88
2022/07/21 05:10:07;;;;;;;10.90;7.90;;;;;;;21.78;56.87;98216.63;105971;1274;24095;-84
2022/07/21 05:12:35;;;;;;;10.50;8.10;;;;;;;21.83;56.99;98215.39;106163;1271;22551;-85
2022/07/21 05:15:09;;;;;;;11.10;7.70;;;;;;;21.88;56.68;98216.73;106083;1274;25027;-86
2022/07/21 05:17:37;;;;;;;11.50;7.10;;;;;;;21.98;56.63;98218.92;106128;1274;24211;-86
2022/07/21 05:20:06;;;;;;;10.90;7.90;;;;;;;22.07;56.73;98215.46;106204;1274;25471;-87
2022/07/21 05:22:34;;;;;;;10.60;8.80;;;;;;;22.11;56.74;98215.52;106121;1272;22537;-84
2022/07/21 05:25:04;;;;;;;12.50;8.50;;;;;;;22.13;56.83;98216.50;106062;1274;22695;-88
2022/07/21 05:27:32;;;;;;;11.10;7.20;;;;;;;22.15;56.68;98219.93;106045;1274;22904;-88
2022/07/21 05:30:01;;;;;;;11.50;7.90;;;;;;;22.20;56.71;98223.09;106168;1274;22695;-85
2022/07/21 05:32:29;;;;;;;11.50;7.40;;;;;;;22.27;56.72;98220.67;106038;1274;22534;-85
2022/07/21 05:34:56;;;;;;;10.20;7.60;;;;;;;22.35;56.66;98222.52;106124;1274;25327;-86
2022/07/21 05:37:25;;;;;;;13.30;7.80;;;;;;;22.39;56.58;98222.91;106070;1274;23932;-87
2022/07/21 05:39:53;;;;;;;11.20;7.50;;;;;;;22.44;56.63;98225.66;106005;1274;23090;-84
2022/07/21 05:42:21;;;;;;;14.10;8.10;;;;;;;22.51;56.57;98225.28;106156;1274;22590;-84
2022/07/21 05:44:49;;;;;;;10.90;8.30;;;;;;;22.58;56.52;98228.13;106101;1274;22726;-85
2022/07/21 05:47:17;;;;;;;12.20;8.30;;;;;;;22.63;56.44;98227.90;106135;1274;25468;-85
2022/07/21 05:49:45;;;;;;;11.20;7.70;;;;;;;22.68;56.22;98232.42;105944;1274;25229;-85
2022/07/21 05:52:13;;;;;;;9.30;8.00;;;;;;;22.74;56.11;98235.02;106065;1274;24202;-86
2022/07/21 05:54:41;;;;;;;12.80;8.50;;;;;;;22.81;56.09;98233.08;106002;1274;22808;-86
2022/07/21 05:57:09;;;;;;;11.00;7.20;;;;;;;22.86;56.23;98237.55;105954;1274;22611;-86
2022/07/21 05:59:38;;;;;;;11.50;7.60;;;;;;;22.94;56.10;98236.27;105899;1274;24356;-85
2022/07/21 06:02:06;;;;;;;11.30;8.20;;;;;;;23.00;55.93;98233.92;106073;1274;24360;-83
2022/07/21 06:04:34;;;;;;;22.40;10.00;;;;;;;23.05;55.89;98232.48;106078;1274;24202;-86
2022/07/21 06:07:02;;;;;;;26.40;9.50;;;;;;;23.08;55.93;98237.80;105881;1274;24412;-84
2022/07/21 06:09:31;;;;;;;20.10;8.70;;;;;;;23.16;55.72;98242.13;106106;1274;25351;-84
2022/07/21 06:11:59;;;;;;;10.10;8.40;;;;;;;23.21;55.71;98248.64;106105;1274;24102;-83
2022/07/21 06:14:27;;;;;;;10.10;8.00;;;;;;;23.29;55.76;98250.85;106114;1274;22874;-83
2022/07/21 06:16:55;;;;;;;14.70;8.20;;;;;;;23.43;55.67;98251.88;105912;1274;25312;-83
2022/07/21 06:19:23;;;;;;;9.10;8.10;;;;;;;23.61;55.57;98259.46;105892;1274;24113;-83
2022/07/21 06:21:59;;;;;;;10.40;8.20;;;;;;;23.75;55.42;98259.33;106010;1275;25621;-85
2022/07/21 06:24:27;;;;;;;9.90;8.60;;;;;;;23.83;54.83;98255.56;106345;1274;24971;-84
2022/07/21 06:26:58;;;;;;;12.30;8.80;;;;;;;23.83;54.70;98255.16;106161;1274;23053;-84
2022/07/21 06:29:33;;;;;;;10.60;8.40;;;;;;;23.82;54.55;98257.27;106118;1274;22614;-84
2022/07/21 06:32:01;;;;;;;10.10;8.70;;;;;;;23.87;54.60;98255.20;106041;1274;22655;-85
2022/07/21 06:35:21;;;;;;;11.30;8.00;;;;;;;23.94;54.70;98259.83;106094;1274;24426;-85
2022/07/21 06:37:49;;;;;;;9.50;8.30;;;;;;;24.10;54.67;98263.11;106126;1274;25513;-86
2022/07/21 06:40:17;;;;;;;10.00;7.40;;;;;;;24.15;54.39;98265.13;106000;1277;24368;-85
2022/07/21 06:42:45;;;;;;;12.10;7.50;;;;;;;24.20;54.40;98264.54;105905;1274;22525;-87
2022/07/21 06:45:34;;;;;;;10.30;8.10;;;;;;;24.26;54.36;98264.44;106176;1274;24263;-88
2022/07/21 06:48:05;;;;;;;8.50;7.60;;;;;;;24.30;54.32;98262.35;106071;1274;22707;-87
2022/07/21 06:50:35;;;;;;;11.80;8.40;;;;;;;24.35;54.19;98261.45;106320;1274;22526;-86
2022/07/21 06:53:04;;;;;;;13.20;8.20;;;;;;;24.40;54.31;98261.17;106226;1274;24355;-83
2022/07/21 06:55:33;;;;;;;11.60;7.60;;;;;;;24.49;54.13;98261.49;106191;1274;24298;-86
2022/07/21 06:58:15;;;;;;;15.30;7.40;;;;;;;24.58;53.97;98265.66;105916;1276;22542;-83
2022/07/21 07:00:45;;;;;;;14.10;8.50;;;;;;;24.71;53.95;98266.86;106160;1274;24412;-83
2022/07/21 07:03:15;;;;;;;9.30;7.30;;;;;;;24.80;53.57;98268.56;106315;1274;22537;-84
2022/07/21 07:05:45;;;;;;;9.40;7.40;;;;;;;24.86;53.62;98270.09;106602;1274;22680;-82
2022/07/21 07:08:14;;;;;;;9.20;7.40;;;;;;;24.91;53.46;98271.63;106962;1274;25460;-82
2022/07/21 07:10:43;;;;;;;10.60;7.10;;;;;;;24.97;53.47;98270.47;106399;1274;24740;-81
2022/07/21 07:13:13;;;;;;;9.30;7.60;;;;;;;25.09;53.34;98271.80;106493;1274;22649;-82
2022/07/21 07:16:01;;;;;;;8.90;7.60;;;;;;;25.17;53.33;98270.45;106693;1274;22553;-82
2022/07/21 07:18:29;;;;;;;11.10;7.70;;;;;;;25.25;52.98;98269.14;106649;1274;22710;-81
2022/07/21 07:20:57;;;;;;;11.10;7.20;;;;;;;25.39;53.15;98269.44;106498;1274;22547;-83
2022/07/21 07:23:25;;;;;;;11.60;7.40;;;;;;;25.52;52.73;98277.27;106532;1274;22651;-86
2022/07/21 07:25:53;;;;;;;11.60;7.50;;;;;;;25.62;52.67;98278.50;106444;1274;22606;-87
2022/07/21 07:28:21;;;;;;;13.00;7.20;;;;;;;25.72;52.47;98282.23;106494;1274;22712;-86
2022/07/21 07:30:49;;;;;;;9.80;7.00;;;;;;;25.81;52.52;98282.67;106435;1276;22556;-85
2022/07/21 07:33:17;;;;;;;10.60;7.30;;;;;;;25.89;52.39;98282.38;106682;1274;25414;-89
2022/07/21 07:35:45;;;;;;;9.20;7.00;;;;;;;25.97;52.04;98287.29;106693;1274;23686;-87
2022/07/21 07:38:14;;;;;;;9.20;6.80;;;;;;;26.07;51.97;98286.84;106482;1274;22532;-83
2022/07/21 07:40:43;;;;;;;22.40;19.70;;;;;;;26.15;51.99;98286.29;106395;1274;22613;-84
2022/07/21 07:43:11;;;;;;;27.90;23.40;;;;;;;26.29;52.12;98286.30;106380;1274;22722;-85
2022/07/21 07:45:40;;;;;;;18.30;16.60;;;;;;;26.44;51.79;98283.54;106459;1274;26238;-84
2022/07/21 07:48:08;;;;;;;16.20;14.50;;;;;;;26.55;51.39;98283.40;106468;1274;22660;-84
2022/07/21 07:50:36;;;;;;;10.00;8.90;;;;;;;26.65;51.26;98287.90;106444;1274;22873;-86
2022/07/21 07:53:04;;;;;;;11.10;8.10;;;;;;;26.76;50.83;98292.94;106468;1272;22553;-87
2022/07/21 07:55:36;;;;;;;8.30;6.60;;;;;;;26.80;50.09;98291.83;106410;1274;25302;-87
2022/07/21 07:58:04;;;;;;;10.60;6.80;;;;;;;26.81;50.39;98293.09;106543;1274;25282;-83
2022/07/21 08:00:32;;;;;;;9.00;6.40;;;;;;;26.90;50.23;98290.77;106529;1274;22640;-81
2022/07/21 08:03:21;;;;;;;10.70;6.50;;;;;;;27.05;50.01;98290.52;106380;1274;22547;-83
2022/07/21 08:05:50;;;;;;;8.10;6.30;;;;;;;27.15;49.75;98290.50;106448;1274;24412;-83
2022/07/21 08:08:18;;;;;;;8.70;6.30;;;;;;;27.29;49.74;98289.59;106492;1274;25338;-83
2022/07/21 08:10:47;;;;;;;7.90;6.40;;;;;;;27.41;49.53;98287.42;106446;1274;24365;-83
2022/07/21 08:13:17;;;;;;;8.70;6.30;;;;;;;27.54;49.23;98287.27;106450;1274;22547;-82
2022/07/21 08:15:47;;;;;;;11.50;6.20;;;;;;;27.65;48.81;98284.31;106602;1274;22553;-87
2022/07/21 08:18:17;;;;;;;10.90;5.80;;;;;;;27.77;48.45;98283.39;106696;1274;22551;-90
2022/07/21 08:20:46;;;;;;;11.10;6.30;;;;;;;27.89;48.50;98275.82;107634;1274;25266;-92
2022/07/21 08:23:14;;;;;;;11.00;5.70;;;;;;;28.03;47.68;98275.09;107698;1274;25344;-88
2022/07/21 08:25:43;;;;;;;9.30;6.70;;;;;;;28.15;47.77;98271.05;107673;1274;24290;-89
2022/07/21 08:28:12;;;;;;;8.10;6.00;;;;;;;28.29;47.89;98272.42;107720;1274;25222;-91
2022/07/21 08:30:40;;;;;;;10.10;6.50;;;;;;;28.42;46.87;98269.58;107250;1274;22561;-90
2022/07/21 08:33:08;;;;;;;11.10;5.60;;;;;;;28.38;46.33;98252.84;106844;1274;22762;-88
2022/07/21 08:35:36;;;;;;;11.20;6.20;;;;;;;28.57;46.10;98269.54;106875;1274;23354;-90
2022/07/21 08:38:07;;;;;;;9.40;5.90;;;;;;;28.68;46.19;98269.44;107045;1274;24284;-88
2022/07/21 08:40:38;;;;;;;8.50;5.50;;;;;;;28.81;45.77;98271.20;106896;1274;22691;-90
2022/07/21 08:43:08;;;;;;;23.50;5.10;;;;;;;28.93;45.34;98272.66;106943;1274;22677;-91
2022/07/21 08:45:37;;;;;;;6.80;5.60;;;;;;;29.01;44.40;98271.80;107052;1274;22577;-89
2022/07/21 08:48:06;;;;;;;10.10;5.50;;;;;;;29.09;43.75;98272.60;106698;1276;24058;-92
2022/07/21 08:50:39;;;;;;;11.70;5.10;;;;;;;29.16;43.80;98271.09;106641;1276;22778;-89
2022/07/21 08:53:07;;;;;;;8.50;5.40;;;;;;;29.27;43.68;98265.73;106659;1274;22685;-89
2022/07/21 08:55:40;;;;;;;12.50;5.20;;;;;;;29.40;43.74;98268.42;106762;1274;23443;-88
2022/07/21 08:58:10;;;;;;;7.80;4.80;;;;;;;29.55;43.20;98265.92;106817;1276;22552;-87
2022/07/21 09:00:42;;;;;;;11.80;5.80;;;;;;;29.69;43.39;98267.92;107032;1274;24285;-87
2022/07/21 09:03:14;;;;;;;11.30;5.40;;;;;;;29.84;42.90;98261.98;107103;1274;22559;-89
2022/07/21 09:05:57;;;;;;;9.50;5.60;;;;;;;29.92;42.00;98261.01;107006;1273;25390;-87
2022/07/21 09:08:35;;;;;;;10.80;4.70;;;;;;;29.99;42.36;98256.38;106996;1274;23334;-88
2022/07/21 09:11:24;;;;;;;10.00;5.30;;;;;;;30.13;41.62;98258.79;106922;1274;22691;-88
2022/07/21 09:14:08;;;;;;;10.10;5.30;;;;;;;30.26;41.63;98258.83;107071;1274;24205;-87
2022/07/21 09:16:43;;;;;;;11.50;5.10;;;;;;;30.34;41.48;98253.86;106858;1274;26465;-90
2022/07/21 09:19:37;;;;;;;11.80;5.40;;;;;;;30.45;41.68;98254.71;107102;1274;22532;-88
2022/07/21 09:22:11;;;;;;;12.70;5.10;;;;;;;30.56;41.39;98253.02;107123;1274;22594;-89
2022/07/21 09:24:49;;;;;;;8.50;5.20;;;;;;;30.67;41.14;98252.02;107084;1274;26558;-88
2022/07/21 09:27:21;;;;;;;9.80;5.30;;;;;;;30.80;40.45;98254.74;106849;1274;22747;-87
2022/07/21 09:29:49;;;;;;;10.30;5.10;;;;;;;30.87;40.20;98258.29;106941;1273;22649;-88
2022/07/21 09:32:17;;;;;;;13.40;5.30;;;;;;;30.88;40.15;98258.34;106807;1274;22697;-86
2022/07/21 09:34:49;;;;;;;9.50;5.00;;;;;;;30.97;40.37;98257.52;106994;1274;22822;-90
2022/07/21 09:37:18;;;;;;;8.80;5.10;;;;;;;31.11;40.02;98255.11;106663;1274;25325;-89
2022/07/21 09:39:51;;;;;;;12.00;4.80;;;;;;;31.20;39.18;98257.22;106798;1274;22692;-89
2022/07/21 09:42:28;;;;;;;10.80;5.40;;;;;;;31.24;38.92;98255.16;106887;1274;22591;-90
2022/07/21 09:44:58;;;;;;;13.10;5.00;;;;;;;31.31;38.34;98251.63;106973;1274;22537;-89
2022/07/21 09:47:31;;;;;;;10.20;4.50;;;;;;;31.35;38.63;98254.90;107037;1274;24540;-89
2022/07/21 09:50:00;;;;;;;8.90;4.10;;;;;;;31.45;38.36;98255.71;106958;1274;22538;-92
2022/07/21 09:52:53;;;;;;;7.50;4.30;;;;;;;31.56;38.31;98252.53;106997;1274;23889;-90
2022/07/21 09:55:21;;;;;;;8.90;4.80;;;;;;;31.75;37.45;98256.42;106604;1274;22580;-89
2022/07/21 09:57:50;;;;;;;8.50;4.60;;;;;;;31.86;36.99;98257.13;106954;1274;22579;-88
2022/07/21 10:00:19;;;;;;;15.70;4.10;;;;;;;31.99;36.81;98253.57;107013;1274;24115;-91
2022/07/21 10:02:48;;;;;;;8.10;4.20;;;;;;;32.12;35.80;98253.27;106920;1274;25341;-92
2022/07/21 10:05:21;;;;;;;8.90;3.80;;;;;;;32.21;35.29;98248.13;106522;1276;22705;-88
2022/07/21 10:08:02;;;;;;;8.40;3.90;;;;;;;32.25;33.77;98252.73;106689;1274;24240;-85
2022/07/21 10:10:34;;;;;;;9.30;4.10;;;;;;;32.22;34.26;98255.74;106606;1274;22564;-85
2022/07/21 10:13:23;;;;;;;11.70;4.00;;;;;;;32.26;33.91;98254.38;106684;1274;22881;-84
2022/07/21 10:15:52;;;;;;;11.50;4.60;;;;;;;32.32;33.40;98250.89;106793;1274;25376;-88
2022/07/21 10:18:30;;;;;;;10.10;4.10;;;;;;;32.36;33.29;98245.44;106716;1274;22570;-85
2022/07/21 10:21:08;;;;;;;17.90;4.40;;;;;;;32.48;33.77;98239.73;106517;1274;23030;-88
2022/07/21 10:23:41;;;;;;;9.70;3.70;;;;;;;32.63;32.96;98242.70;106602;1274;22845;-88
2022/07/21 10:26:11;;;;;;;7.40;3.90;;;;;;;32.66;32.06;98242.64;106818;1274;22563;-88
2022/07/21 10:28:39;;;;;;;10.00;3.80;;;;;;;32.68;31.12;98241.60;106615;1274;22723;-90
2022/07/21 10:31:17;;;;;;;13.90;4.40;;;;;;;32.73;30.82;98236.06;106712;1274;22680;-87
2022/07/21 10:33:56;;;;;;;11.40;4.10;;;;;;;32.85;30.75;98237.73;106873;1274;24263;-85
2022/07/21 10:36:27;;;;;;;7.70;3.90;;;;;;;32.91;31.06;98234.63;106937;1274;23526;-88
2022/07/21 10:39:20;;;;;;;11.20;4.50;;;;;;;32.95;30.94;98231.22;106769;1274;23323;-85
2022/07/21 10:41:51;;;;;;;10.90;3.70;;;;;;;32.96;30.71;98229.93;106711;1274;25350;-87
2022/07/21 10:44:30;;;;;;;7.50;3.40;;;;;;;32.92;30.35;98232.42;107128;1274;22663;-90
2022/07/21 10:47:11;;;;;;;10.40;3.10;;;;;;;33.01;30.60;98236.59;106725;1274;24186;-87
2022/07/21 10:49:54;;;;;;;9.70;3.50;;;;;;;33.16;29.71;98236.34;106894;1274;22546;-88
2022/07/21 10:52:42;;;;;;;11.50;3.20;;;;;;;33.20;29.42;98240.30;106921;1274;24205;-86
2022/07/21 10:55:10;;;;;;;13.80;4.90;;;;;;;33.20;29.80;98237.56;106381;1274;22677;-86
2022/07/21 10:57:46;;;;;;;6.40;3.70;;;;;;;33.27;30.21;98233.77;107002;1274;22832;-89
2022/07/21 11:00:30;;;;;;;6.80;3.60;;;;;;;33.41;29.74;98237.14;106840;1274;22559;-90
2022/07/21 11:03:00;;;;;;;12.00;3.70;;;;;;;33.47;29.32;98234.80;106783;1274;25410;-88
2022/07/21 11:05:31;;;;;;;11.20;3.70;;;;;;;33.54;29.42;98239.96;106866;1274;22822;-89
2022/07/21 11:08:22;;;;;;;11.10;4.10;;;;;;;33.59;29.46;98238.30;106801;1274;22602;-88
2022/07/21 11:10:52;;;;;;;10.30;4.00;;;;;;;33.66;29.68;98241.91;106925;1274;22748;-88
2022/07/21 11:13:25;;;;;;;5.80;3.10;;;;;;;33.73;29.90;98238.57;106934;1274;25624;-87
2022/07/21 11:16:00;;;;;;;;;;;;;;;33.83;29.49;98238.98;106887;1274;23296;-88
2022/07/21 11:18:31;;;;;;;6.60;2.80;;;;;;;33.98;29.43;98241.98;106662;1274;25307;-90
2022/07/21 11:21:01;;;;;;;5.60;2.80;;;;;;;34.02;28.88;98239.84;106706;1274;22547;-88
2022/07/21 11:23:47;;;;;;;7.00;3.20;;;;;;;34.03;29.07;98237.67;107050;1274;23300;-88
2022/07/21 11:26:18;;;;;;;7.30;3.40;;;;;;;34.18;28.95;98241.49;106811;1274;22660;-90
2022/07/21 11:28:46;;;;;;;12.00;3.60;;;;;;;34.23;28.53;98237.97;106939;1274;26088;-89
2022/07/21 11:31:21;;;;;;;6.20;4.00;;;;;;;34.21;28.48;98236.13;106869;1274;22543;-86
2022/07/21 11:33:49;;;;;;;7.20;3.30;;;;;;;34.24;28.57;98232.05;106925;1274;22691;-87
2022/07/21 11:36:31;;;;;;;9.20;3.60;;;;;;;34.34;27.95;98234.09;106767;1274;24308;-88
2022/07/21 11:39:08;;;;;;;12.10;3.50;;;;;;;34.42;28.18;98229.83;106890;1274;25335;-89
2022/07/21 11:41:39;;;;;;;9.00;3.60;;;;;;;34.53;28.03;98230.50;106914;1274;24068;-89
2022/07/21 11:44:10;;;;;;;6.90;3.30;;;;;;;34.57;28.17;98228.69;106834;1274;23364;-86
2022/07/21 11:46:49;;;;;;;7.30;3.50;;;;;;;34.75;27.74;98228.96;106703;1274;25556;-89
2022/07/21 11:49:18;;;;;;;8.80;3.40;;;;;;;34.82;27.57;98228.80;106854;1274;22548;-90